Time;durP1;ratioP1;P1;durP2;ratioP2;P2;SDS_P1;SDS_P2;PMS_P1;PMS_P2;Temp;Humidity;BMP_temperature;BMP_pressure;BME280_temperature;BME280_humidity;BME280_pressure;Samples;Min_cycle;Max_cycle;Signal;HPM_P1;HPM_P2
2022/10/14 00:01:24;;;;;;;15.80;7.10;;;;;;;8.46;100.00;101088.72;5051406;28;20490;-71
2022/10/14 00:03:51;;;;;;;11.70;6.47;;;;;;;8.46;100.00;101085.22;5033291;28;20463;-71
2022/10/14 00:06:20;;;;;;;19.37;6.73;;;;;;;8.41;100.00;101090.59;5045805;28;20465;-72
2022/10/14 00:08:47;;;;;;;11.80;6.73;;;;;;;8.32;100.00;101090.31;5052787;28;20863;-72
2022/10/14 00:11:15;;;;;;;11.53;6.40;;;;;;;8.30;100.00;101085.22;5050857;28;20458;-72
2022/10/14 00:13:44;;;;;;;12.30;6.57;;;;;;;8.39;100.00;101090.09;5051620;28;20857;-72
2022/10/14 00:16:16;;;;;;;9.70;5.60;;;;;;;8.21;99.59;101080.66;5050465;28;20458;-73
2022/10/14 00:18:42;;;;;;;13.77;6.00;;;;;;;8.10;99.72;101090.63;5052446;28;20967;-73
2022/10/14 00:21:09;;;;;;;15.93;6.43;;;;;;;8.15;99.20;101096.06;5052353;28;20497;-73
2022/10/14 00:23:35;;;;;;;15.30;7.30;;;;;;;8.10;98.59;101104.13;5051636;28;20494;-74
2022/10/14 00:26:02;;;;;;;13.90;7.07;;;;;;;7.95;97.02;101098.75;5052341;28;20462;-73
2022/10/14 00:28:29;;;;;;;14.63;6.33;;;;;;;7.93;97.08;101092.84;5052279;28;20490;-73
2022/10/14 00:30:58;;;;;;;10.63;6.17;;;;;;;7.84;97.15;101085.28;5051486;28;20512;-73
2022/10/14 00:33:26;;;;;;;15.10;6.70;;;;;;;7.90;97.29;101087.97;5052456;28;20487;-73
2022/10/14 00:35:54;;;;;;;13.87;7.07;;;;;;;7.80;99.06;101089.59;5051813;28;20931;-73
2022/10/14 00:38:20;;;;;;;14.30;6.40;;;;;;;7.81;99.60;101091.19;5051619;28;20470;-73
2022/10/14 00:40:47;;;;;;;11.60;6.43;;;;;;;7.89;99.71;101094.44;5051079;28;20999;-73
2022/10/14 00:43:14;;;;;;;13.57;6.40;;;;;;;7.93;99.64;101090.94;5052736;28;20998;-73
2022/10/14 00:45:40;;;;;;;13.20;6.80;;;;;;;7.79;100.00;101090.69;5051293;28;20461;-73
2022/10/14 00:48:09;;;;;;;18.57;7.83;;;;;;;7.77;100.00;101084.72;5051747;28;20470;-73
2022/10/14 00:50:37;;;;;;;16.77;6.23;;;;;;;7.74;100.00;101084.44;5039807;28;20553;-73
2022/10/14 00:53:04;;;;;;;13.27;6.37;;;;;;;7.69;100.00;101082.56;5052286;28;20482;-73
2022/10/14 00:55:31;;;;;;;13.80;5.93;;;;;;;7.72;100.00;101087.44;5051162;28;20461;-73
2022/10/14 00:57:57;;;;;;;16.20;6.70;;;;;;;7.73;100.00;101094.44;5050324;28;20817;-74
2022/10/14 01:00:24;;;;;;;14.53;6.53;;;;;;;7.79;100.00;101097.94;5051796;28;20492;-73
2022/10/14 01:02:50;;;;;;;13.83;6.40;;;;;;;7.86;100.00;101093.09;5051556;28;20492;-73
2022/10/14 01:05:20;;;;;;;12.90;6.70;;;;;;;7.70;100.00;101086.91;5051635;28;20462;-73
2022/10/14 01:08:02;;;;;;;16.87;6.40;;;;;;;7.66;100.00;101096.59;5051916;28;20450;-74
2022/10/14 01:10:37;;;;;;;13.40;6.30;;;;;;;7.68;100.00;101091.75;5037931;28;20451;-73
2022/10/14 01:13:16;;;;;;;11.90;7.00;;;;;;;7.74;100.00;101095.25;5051641;28;20512;-73
2022/10/14 01:15:52;;;;;;;10.50;5.83;;;;;;;7.69;99.08;101089.84;5052439;28;20900;-72
2022/10/14 01:18:31;;;;;;;14.20;6.87;;;;;;;7.61;98.63;101088.50;5056208;28;20507;-73
2022/10/14 01:21:10;;;;;;;14.37;6.70;;;;;;;7.52;98.12;101082.00;5055425;28;20478;-73
2022/10/14 01:24:00;;;;;;;11.53;5.20;;;;;;;7.51;98.62;101083.09;5055228;28;20547;-73
2022/10/14 01:26:50;;;;;;;14.93;6.60;;;;;;;7.56;99.38;101077.72;5053960;28;20554;-73
2022/10/14 01:29:31;;;;;;;14.63;5.70;;;;;;;7.57;100.00;101077.47;5054662;28;20979;-73
2022/10/14 01:32:05;;;;;;;16.60;6.13;;;;;;;7.53;100.00;101078.25;5055468;28;21032;-73
2022/10/14 01:34:38;;;;;;;18.00;6.70;;;;;;;7.46;100.00;101064.22;5055848;28;20458;-73
2022/10/14 01:37:10;;;;;;;18.13;6.70;;;;;;;7.48;100.00;101073.69;5054596;28;20464;-73
2022/10/14 01:39:42;;;;;;;13.60;5.73;;;;;;;7.44;100.00;101066.41;5056781;28;20454;-73
2022/10/14 01:42:13;;;;;;;14.20;6.90;;;;;;;7.42;100.00;101071.22;5054886;28;20494;-73
2022/10/14 01:44:43;;;;;;;11.63;6.47;;;;;;;7.49;100.00;101075.28;5055327;28;20967;-73
2022/10/14 01:47:15;;;;;;;9.27;5.10;;;;;;;7.41;100.00;101056.94;5055147;28;20967;-73
2022/10/14 01:49:46;;;;;;;18.50;6.93;;;;;;;7.43;100.00;101060.16;5055450;28;20461;-72
2022/10/14 01:52:21;;;;;;;14.60;6.50;;;;;;;7.33;100.00;101062.88;5053802;28;20480;-73
2022/10/14 01:54:51;;;;;;;14.93;6.27;;;;;;;7.28;99.66;101066.34;5056014;28;20430;-73
2022/10/14 01:57:22;;;;;;;12.00;6.43;;;;;;;7.24;98.53;101062.56;5053345;28;20478;-73
2022/10/14 01:59:50;;;;;;;13.37;5.73;;;;;;;7.20;97.54;101056.09;5055927;28;20422;-73
2022/10/14 02:02:18;;;;;;;16.93;6.80;;;;;;;7.10;97.87;101066.06;5054193;28;20494;-72
2022/10/14 02:04:45;;;;;;;15.23;7.90;;;;;;;7.09;98.26;101062.56;5055456;28;20936;-73
2022/10/14 02:07:17;;;;;;;17.67;6.87;;;;;;;7.04;98.89;101049.09;5055026;28;20469;-73
2022/10/14 02:09:51;;;;;;;12.47;5.47;;;;;;;7.10;98.43;101052.59;5054156;28;20473;-74
2022/10/14 02:12:27;;;;;;;27.47;7.23;;;;;;;6.97;100.00;101057.41;5055089;28;20499;-72
2022/10/14 02:15:08;;;;;;;12.63;6.23;;;;;;;6.96;100.00;101060.38;5055055;28;20503;-72
2022/10/14 02:17:48;;;;;;;12.87;6.53;;;;;;;7.10;100.00;101056.09;5054100;28;20480;-72
2022/10/14 02:20:23;;;;;;;14.20;6.30;;;;;;;7.26;100.00;101068.53;5054151;28;20967;-72
2022/10/14 02:22:54;;;;;;;15.57;6.63;;;;;;;7.32;100.00;101066.66;5053409;28;20493;-72
2022/10/14 02:25:26;;;;;;;14.63;6.00;;;;;;;7.26;100.00;101063.13;5055183;28;20900;-73
2022/10/14 02:27:54;;;;;;;19.17;7.03;;;;;;;7.29;100.00;101067.97;5053907;28;20458;-72
2022/10/14 02:30:21;;;;;;;13.93;6.27;;;;;;;7.39;100.00;101075.25;5053939;28;21022;-72
2022/10/14 02:32:50;;;;;;;11.53;5.90;;;;;;;7.49;100.00;101074.47;5045446;28;20967;-72
2022/10/14 02:35:19;;;;;;;15.93;7.43;;;;;;;7.53;100.00;101072.88;5055062;28;20922;-72
2022/10/14 02:37:47;;;;;;;9.77;5.37;;;;;;;7.55;100.00;101076.09;5038030;28;20508;-72
2022/10/14 02:40:18;;;;;;;13.70;6.23;;;;;;;7.58;100.00;101070.19;5053785;28;20450;-72
2022/10/14 02:42:44;;;;;;;13.13;6.43;;;;;;;7.58;100.00;101070.97;5052744;28;20547;-72
2022/10/14 02:45:13;;;;;;;11.37;6.60;;;;;;;7.59;100.00;101072.59;5053698;28;20471;-72
2022/10/14 02:47:39;;;;;;;14.10;6.50;;;;;;;7.58;99.79;101075.56;5053187;28;20845;-73
2022/10/14 02:50:09;;;;;;;16.20;7.10;;;;;;;7.57;99.58;101068.56;5054549;28;20453;-73
2022/10/14 02:52:35;;;;;;;11.97;6.30;;;;;;;7.57;99.54;101073.97;5053038;28;21006;-72
2022/10/14 02:55:01;;;;;;;16.17;7.93;;;;;;;7.54;99.22;101063.69;5054780;28;20491;-73
2022/10/14 02:57:28;;;;;;;13.27;6.10;;;;;;;7.66;98.80;101058.03;5053930;28;20470;-73
2022/10/14 02:59:54;;;;;;;11.40;5.60;;;;;;;7.73;98.11;101051.28;5052771;28;21006;-73
2022/10/14 03:02:21;;;;;;;14.57;6.80;;;;;;;7.71;100.00;101052.66;5052619;28;20486;-73
2022/10/14 03:04:47;;;;;;;12.80;5.60;;;;;;;7.77;100.00;101044.28;5053717;28;20458;-73
2022/10/14 03:07:15;;;;;;;14.03;6.60;;;;;;;7.80;100.00;101046.44;5052947;28;20966;-74
2022/10/14 03:09:41;;;;;;;13.90;6.57;;;;;;;7.90;100.00;101044.81;5054263;28;20441;-74
2022/10/14 03:12:08;;;;;;;13.90;6.73;;;;;;;7.90;100.00;101034.84;5053772;28;20550;-74
2022/10/14 03:14:34;;;;;;;14.73;6.83;;;;;;;7.98;100.00;101042.38;5053948;28;20556;-73
2022/10/14 03:17:00;;;;;;;13.17;6.00;;;;;;;7.86;100.00;101032.94;5052598;28;20466;-73
2022/10/14 03:19:27;;;;;;;14.80;6.43;;;;;;;7.71;100.00;101042.69;5054039;28;20446;-73
2022/10/14 03:21:53;;;;;;;23.10;7.30;;;;;;;7.73;100.00;101040.50;5052344;28;20490;-74
2022/10/14 03:24:21;;;;;;;14.47;6.50;;;;;;;7.79;100.00;101035.91;5052658;28;20492;-74
2022/10/14 03:26:47;;;;;;;16.70;6.83;;;;;;;7.90;100.00;101025.94;5052841;28;20462;-73
2022/10/14 03:29:14;;;;;;;10.10;5.67;;;;;;;7.83;100.00;101028.91;5053055;28;20469;-74
2022/10/14 03:31:40;;;;;;;17.90;7.20;;;;;;;7.76;100.00;101023.78;5052293;28;20471;-73
2022/10/14 03:34:07;;;;;;;16.53;7.47;;;;;;;7.78;100.00;101021.63;5052966;28;20458;-73
2022/10/14 03:36:33;;;;;;;16.00;6.97;;;;;;;7.70;100.00;101024.06;5053496;28;20470;-73
2022/10/14 03:39:00;;;;;;;15.47;7.77;;;;;;;7.63;100.00;101018.94;5052223;28;20466;-73
2022/10/14 03:41:28;;;;;;;9.60;4.87;;;;;;;7.71;100.00;101025.69;5053234;28;20886;-73
2022/10/14 03:43:54;;;;;;;14.17;6.03;;;;;;;7.80;100.00;101024.06;5052809;28;20458;-73
2022/10/14 03:46:21;;;;;;;16.33;6.43;;;;;;;7.69;100.00;101036.72;5053594;28;20453;-73
2022/10/14 03:48:47;;;;;;;23.07;6.27;;;;;;;7.56;100.00;101054.25;5053578;28;20951;-73
2022/10/14 03:51:14;;;;;;;14.50;6.57;;;;;;;7.51;100.00;101048.88;5040208;28;20473;-74
2022/10/14 03:53:40;;;;;;;10.90;6.00;;;;;;;7.49;100.00;101045.66;5053679;28;20458;-73
2022/10/14 03:56:07;;;;;;;12.23;6.70;;;;;;;7.52;99.96;101038.88;5051957;28;20481;-74
2022/10/14 03:58:35;;;;;;;16.27;5.93;;;;;;;7.53;99.70;101032.44;5053635;28;20438;-73
2022/10/14 04:01:01;;;;;;;17.13;6.87;;;;;;;7.46;100.00;101031.88;5051226;28;20461;-72
2022/10/14 04:03:28;;;;;;;14.60;6.60;;;;;;;7.50;100.00;101031.09;5052075;28;20494;-73
2022/10/14 04:05:54;;;;;;;24.23;6.40;;;;;;;7.57;100.00;101033.53;5052183;28;20496;-73
2022/10/14 04:08:21;;;;;;;16.60;6.80;;;;;;;7.63;100.00;101034.31;5052594;28;20455;-73
2022/10/14 04:10:52;;;;;;;17.33;6.40;;;;;;;7.61;100.00;101033.75;5050567;28;20466;-73
2022/10/14 04:13:18;;;;;;;14.03;5.77;;;;;;;7.70;100.00;101029.44;5052384;28;20481;-73
2022/10/14 04:15:46;;;;;;;10.37;5.93;;;;;;;7.70;100.00;101019.50;5052073;28;20464;-73
2022/10/14 04:18:12;;;;;;;15.70;5.93;;;;;;;7.75;100.00;101016.00;5052373;28;21007;-73
2022/10/14 04:20:39;;;;;;;18.43;7.10;;;;;;;7.64;100.00;101025.94;5052698;28;20485;-73
2022/10/14 04:23:06;;;;;;;14.80;7.00;;;;;;;7.62;100.00;101017.34;5051837;28;20486;-73
2022/10/14 04:25:32;;;;;;;17.43;6.70;;;;;;;7.66;100.00;101018.41;5052922;28;20464;-73
2022/10/14 04:27:59;;;;;;;18.93;6.10;;;;;;;7.75;100.00;101013.28;5052652;28;20512;-73
2022/10/14 04:30:25;;;;;;;10.63;6.00;;;;;;;7.79;100.00;101011.63;5051541;28;20458;-73
2022/10/14 04:32:53;;;;;;;15.80;7.40;;;;;;;7.72;100.00;101011.94;5052079;28;20475;-73
2022/10/14 04:35:20;;;;;;;14.13;6.30;;;;;;;7.76;100.00;100999.53;5050078;28;20830;-73
2022/10/14 04:37:46;;;;;;;16.70;6.67;;;;;;;7.89;100.00;101011.66;5052114;28;20466;-73
2022/10/14 04:40:12;;;;;;;12.23;6.23;;;;;;;8.00;100.00;101012.44;5051967;28;20458;-73
2022/10/14 04:42:39;;;;;;;12.80;6.87;;;;;;;7.94;100.00;101008.94;5051784;28;20520;-72
2022/10/14 04:45:06;;;;;;;11.77;6.20;;;;;;;7.90;100.00;101013.25;5052407;28;20561;-73
2022/10/14 04:47:32;;;;;;;14.30;6.57;;;;;;;7.88;100.00;101009.19;5052190;28;20466;-73
2022/10/14 04:50:00;;;;;;;14.03;6.27;;;;;;;7.90;100.00;100999.78;5052566;28;20481;-73
2022/10/14 04:52:26;;;;;;;10.07;5.10;;;;;;;8.05;100.00;100998.91;5053808;28;20999;-72
2022/10/14 04:54:53;;;;;;;15.87;5.63;;;;;;;8.03;100.00;101011.88;5057405;28;20442;-73
2022/10/14 04:57:19;;;;;;;15.33;6.67;;;;;;;8.13;100.00;101000.25;5053977;28;20950;-73
2022/10/14 04:59:46;;;;;;;12.80;5.80;;;;;;;8.13;100.00;101003.75;5050203;28;20512;-73
2022/10/14 05:02:12;;;;;;;17.10;6.40;;;;;;;8.19;100.00;100999.97;5055886;28;20871;-72
2022/10/14 05:04:39;;;;;;;15.27;6.80;;;;;;;8.24;100.00;100999.97;5055277;28;20458;-73
2022/10/14 05:07:06;;;;;;;14.33;6.00;;;;;;;8.22;100.00;101004.81;5056850;28;20799;-73
2022/10/14 05:09:33;;;;;;;10.60;5.80;;;;;;;8.29;100.00;101010.75;5054723;28;20462;-72
2022/10/14 05:12:00;;;;;;;14.60;6.77;;;;;;;8.35;100.00;101004.22;5056727;28;20462;-75
2022/10/14 05:14:26;;;;;;;12.90;6.30;;;;;;;8.43;100.00;101004.78;5056069;28;20859;-72
2022/10/14 05:16:53;;;;;;;15.90;6.40;;;;;;;8.39;100.00;101009.91;5052836;28;20462;-72
2022/10/14 05:19:19;;;;;;;13.40;5.57;;;;;;;8.39;100.00;101003.72;5055556;28;20458;-72
2022/10/14 05:21:45;;;;;;;12.73;6.23;;;;;;;8.47;100.00;101001.25;5055143;28;20531;-72
2022/10/14 05:24:13;;;;;;;12.40;6.67;;;;;;;8.49;100.00;101006.38;5056775;28;20422;-71
2022/10/14 05:26:40;;;;;;;12.47;6.23;;;;;;;8.45;100.00;101005.31;5055581;28;20469;-72
2022/10/14 05:29:06;;;;;;;10.77;5.10;;;;;;;8.47;100.00;101000.44;5054782;28;20955;-72
2022/10/14 05:31:32;;;;;;;11.47;6.00;;;;;;;8.44;100.00;101001.78;5056146;28;20446;-72
2022/10/14 05:33:59;;;;;;;18.03;6.00;;;;;;;8.42;100.00;100993.19;5056348;28;20979;-71
2022/10/14 05:36:25;;;;;;;13.47;6.20;;;;;;;8.38;100.00;100994.81;5056755;28;20442;-72
2022/10/14 05:38:55;;;;;;;13.87;6.83;;;;;;;8.44;100.00;100991.00;5056530;28;20521;-71
2022/10/14 05:41:22;;;;;;;13.00;5.53;;;;;;;8.48;100.00;100993.97;5056584;28;20446;-71
2022/10/14 05:43:49;;;;;;;19.80;6.70;;;;;;;8.50;100.00;100989.06;5055943;28;21007;-71
2022/10/14 05:46:15;;;;;;;15.50;7.83;;;;;;;8.52;100.00;100985.03;5056445;28;20499;-71
2022/10/14 05:48:42;;;;;;;15.03;6.40;;;;;;;8.48;100.00;100985.84;5055810;28;20816;-73
2022/10/14 05:51:08;;;;;;;14.90;5.63;;;;;;;8.50;100.00;100989.91;5055833;28;20449;-73
2022/10/14 05:53:38;;;;;;;14.97;6.30;;;;;;;8.53;100.00;100996.63;5055776;28;20473;-73
2022/10/14 05:56:05;;;;;;;15.30;6.60;;;;;;;8.56;100.00;100983.38;5055702;28;20442;-73
2022/10/14 05:58:34;;;;;;;18.00;6.70;;;;;;;8.73;100.00;100993.03;5055680;28;20484;-75
2022/10/14 06:01:00;;;;;;;15.00;7.13;;;;;;;8.75;100.00;100994.34;5055325;28;20930;-72
2022/10/14 06:03:27;;;;;;;16.43;6.93;;;;;;;8.87;100.00;100993.22;5054629;28;20981;-74
2022/10/14 06:05:53;;;;;;;14.97;6.33;;;;;;;8.94;100.00;100991.84;5055482;28;20837;-74
2022/10/14 06:08:20;;;;;;;16.00;7.33;;;;;;;8.88;100.00;100984.84;5055748;28;20442;-73
2022/10/14 06:10:46;;;;;;;11.07;5.83;;;;;;;8.88;100.00;100990.25;5055686;28;20442;-72
2022/10/14 06:13:13;;;;;;;18.63;6.80;;;;;;;8.96;100.00;100992.34;5055283;28;20535;-73
2022/10/14 06:15:40;;;;;;;17.43;7.10;;;;;;;9.03;100.00;100994.72;5055624;28;20594;-72
2022/10/14 06:18:07;;;;;;;12.53;5.93;;;;;;;9.13;100.00;100993.88;5055657;28;20499;-74
2022/10/14 06:20:34;;;;;;;13.13;7.00;;;;;;;9.18;100.00;100986.53;5055600;28;20492;-74
2022/10/14 06:23:01;;;;;;;11.67;6.10;;;;;;;9.27;100.00;100990.25;5055084;28;20493;-72
2022/10/14 06:25:27;;;;;;;12.70;6.03;;;;;;;9.25;100.00;100981.63;5055374;28;20446;-71
2022/10/14 06:27:54;;;;;;;17.37;6.53;;;;;;;9.32;100.00;100981.28;5055385;28;20442;-72
2022/10/14 06:30:20;;;;;;;9.17;5.53;;;;;;;9.33;100.00;100991.81;5055327;28;20442;-72
2022/10/14 06:32:48;;;;;;;11.93;6.67;;;;;;;9.38;100.00;100988.25;5055198;28;20473;-73
2022/10/14 06:35:14;;;;;;;15.70;7.10;;;;;;;9.50;100.00;100990.59;5055516;28;20442;-72
2022/10/14 06:37:44;;;;;;;13.63;6.77;;;;;;;9.53;100.00;100984.63;5054903;28;20958;-73
2022/10/14 06:40:11;;;;;;;15.50;6.10;;;;;;;9.63;100.00;100989.94;5055099;28;20438;-73
2022/10/14 06:42:38;;;;;;;15.30;5.97;;;;;;;9.77;100.00;100990.88;5054941;28;20482;-75
2022/10/14 06:45:05;;;;;;;10.63;5.83;;;;;;;9.84;100.00;100994.06;5055039;28;20446;-72
2022/10/14 06:47:32;;;;;;;15.47;6.90;;;;;;;9.99;100.00;100987.69;5054720;28;20484;-71
2022/10/14 06:50:00;;;;;;;19.03;7.10;;;;;;;10.08;100.00;101001.41;5054666;28;20827;-72
2022/10/14 06:52:26;;;;;;;14.37;6.57;;;;;;;10.09;100.00;101003.84;5054616;28;20967;-72
2022/10/14 06:54:53;;;;;;;14.40;7.10;;;;;;;10.18;100.00;101008.59;5054626;28;20932;-72
2022/10/14 06:57:19;;;;;;;13.00;7.07;;;;;;;10.22;100.00;101010.44;5054591;28;20442;-72
2022/10/14 06:59:45;;;;;;;12.50;6.43;;;;;;;10.28;100.00;101017.47;5054631;28;20935;-72
2022/10/14 07:02:12;;;;;;;16.90;7.30;;;;;;;10.27;100.00;101021.28;5054606;28;20465;-71
2022/10/14 07:04:39;;;;;;;14.87;6.93;;;;;;;10.28;100.00;101014.75;5054707;28;20450;-71
2022/10/14 07:07:08;;;;;;;13.60;6.70;;;;;;;10.37;100.00;101017.63;5054421;28;20446;-71
2022/10/14 07:09:34;;;;;;;12.03;6.20;;;;;;;10.43;100.00;101012.94;5054652;28;20541;-72
2022/10/14 07:12:01;;;;;;;17.60;7.43;;;;;;;10.49;100.00;101015.31;5054496;28;20458;-71
2022/10/14 07:14:27;;;;;;;13.07;6.37;;;;;;;10.55;100.00;101024.19;5053726;28;20476;-71
2022/10/14 07:16:54;;;;;;;12.77;6.40;;;;;;;10.64;100.00;101024.34;5054225;28;20943;-71
2022/10/14 07:19:20;;;;;;;17.07;6.90;;;;;;;10.72;100.00;101015.56;5054100;28;20947;-71
2022/10/14 07:21:47;;;;;;;13.43;5.83;;;;;;;10.81;100.00;101020.06;5054266;28;20455;-72
2022/10/14 07:24:14;;;;;;;22.07;7.77;;;;;;;10.90;100.00;101020.22;5053980;28;20473;-72
2022/10/14 07:26:41;;;;;;;11.90;6.30;;;;;;;10.99;100.00;101023.88;5054256;28;20932;-72
2022/10/14 07:29:07;;;;;;;12.43;5.97;;;;;;;11.06;100.00;101020.78;5054455;28;20446;-71
2022/10/14 07:31:34;;;;;;;18.20;6.67;;;;;;;11.13;100.00;101010.38;5054280;28;20434;-71
2022/10/14 07:34:01;;;;;;;14.77;7.73;;;;;;;11.22;100.00;101019.47;5053745;28;20512;-71
2022/10/14 07:36:27;;;;;;;15.77;7.53;;;;;;;11.27;100.00;101022.09;5054122;28;20449;-72
2022/10/14 07:38:54;;;;;;;18.40;8.33;;;;;;;11.31;100.00;101028.53;5054002;28;20503;-71
2022/10/14 07:41:24;;;;;;;14.20;7.50;;;;;;;11.39;100.00;101028.97;5053719;28;20935;-71
2022/10/14 07:43:53;;;;;;;15.83;7.97;;;;;;;11.45;100.00;101034.00;5053934;28;20481;-72
2022/10/14 07:46:28;;;;;;;16.27;7.73;;;;;;;11.51;100.00;101018.47;5053897;28;20442;-72
2022/10/14 07:48:54;;;;;;;16.33;6.90;;;;;;;11.61;100.00;101019.13;5054053;28;20466;-73
2022/10/14 07:51:21;;;;;;;11.63;6.73;;;;;;;11.69;100.00;101028.50;5049681;28;20998;-77
2022/10/14 07:53:49;;;;;;;16.10;7.43;;;;;;;11.76;100.00;101023.47;5048374;28;20513;-75
2022/10/14 07:56:15;;;;;;;12.73;7.50;;;;;;;11.85;100.00;101020.91;5033915;28;20450;-72
2022/10/14 07:58:43;;;;;;;15.70;8.03;;;;;;;11.96;100.00;101021.53;5052163;28;20466;-72
2022/10/14 08:01:09;;;;;;;12.70;6.93;;;;;;;12.08;100.00;101021.84;5052687;28;20454;-72
2022/10/14 08:03:36;;;;;;;12.73;6.87;;;;;;;12.19;100.00;101014.31;5051300;28;20494;-73
2022/10/14 08:06:04;;;;;;;21.77;9.70;;;;;;;12.32;100.00;101017.03;5053469;28;20500;-73
2022/10/14 08:08:32;;;;;;;18.07;8.27;;;;;;;12.44;100.00;101023.84;5051726;28;20556;-72
2022/10/14 08:11:03;;;;;;;22.33;9.57;;;;;;;12.55;100.00;101028.78;5053453;28;20438;-73
2022/10/14 08:13:30;;;;;;;20.33;9.80;;;;;;;12.71;100.00;101031.22;5051869;28;21001;-73
2022/10/14 08:15:58;;;;;;;24.70;9.60;;;;;;;12.87;100.00;101030.56;5053388;28;20446;-73
2022/10/14 08:18:24;;;;;;;21.93;9.60;;;;;;;13.02;100.00;101029.44;5051525;28;20882;-73
2022/10/14 08:20:51;;;;;;;15.00;8.57;;;;;;;13.14;100.00;101026.94;5053333;28;20457;-73
2022/10/14 08:23:17;;;;;;;20.30;7.00;;;;;;;13.30;100.00;101023.94;5051682;28;20494;-73
2022/10/14 08:25:44;;;;;;;21.80;9.47;;;;;;;13.42;100.00;101018.75;5052655;28;20822;-72
2022/10/14 08:28:10;;;;;;;17.20;8.20;;;;;;;13.50;100.00;101020.72;5051918;28;20944;-73
2022/10/14 08:30:37;;;;;;;17.83;7.57;;;;;;;13.61;100.00;101016.63;5053192;28;20489;-73
2022/10/14 08:33:05;;;;;;;15.80;7.70;;;;;;;13.71;100.00;101012.03;5052026;28;20478;-73
2022/10/14 08:35:31;;;;;;;21.70;10.50;;;;;;;13.78;99.66;101005.03;5053166;28;20964;-73
2022/10/14 08:37:59;;;;;;;18.90;8.37;;;;;;;13.88;99.62;100999.31;5052451;28;20462;-72
2022/10/14 08:40:25;;;;;;;21.00;9.70;;;;;;;14.01;99.22;101003.06;5052304;28;20461;-73
2022/10/14 08:43:00;;;;;;;17.33;8.40;;;;;;;14.18;99.25;101005.06;5053007;28;20458;-73
2022/10/14 08:45:32;;;;;;;12.37;6.50;;;;;;;14.31;98.69;101006.88;5051289;28;20951;-73
2022/10/14 08:48:01;;;;;;;19.27;8.00;;;;;;;14.46;98.53;101002.91;5052109;28;20466;-72
2022/10/14 08:50:33;;;;;;;18.93;8.80;;;;;;;14.55;97.78;101005.69;5051852;28;20816;-73
2022/10/14 08:53:06;;;;;;;18.50;9.03;;;;;;;14.63;96.51;101002.97;5053011;28;20466;-73
2022/10/14 08:55:35;;;;;;;23.70;7.10;;;;;;;14.75;96.13;101012.47;5052432;28;20446;-73
2022/10/14 08:58:11;;;;;;;11.80;6.60;;;;;;;14.84;95.36;101003.16;5050319;28;20459;-74
2022/10/14 09:00:40;;;;;;;15.83;6.90;;;;;;;14.91;95.24;101005.41;5033098;28;20431;-73
2022/10/14 09:03:16;;;;;;;13.57;5.70;;;;;;;15.00;95.23;101000.75;5037315;28;20544;-73
2022/10/14 09:05:44;;;;;;;14.23;6.17;;;;;;;15.11;94.95;100991.13;5052009;28;20548;-72
2022/10/14 09:08:15;;;;;;;18.50;7.30;;;;;;;15.24;95.32;100989.38;5051505;28;20969;-73
2022/10/14 09:10:43;;;;;;;17.63;7.07;;;;;;;15.33;92.48;100992.91;5051667;28;20904;-73
2022/10/14 09:13:16;;;;;;;13.23;6.80;;;;;;;15.43;92.77;100990.94;5052367;28;20887;-73
2022/10/14 09:15:45;;;;;;;12.53;7.20;;;;;;;15.61;92.19;100987.84;5052293;28;20419;-73
2022/10/14 09:18:21;;;;;;;16.80;7.70;;;;;;;15.73;90.88;100987.22;5051555;28;20838;-72
2022/10/14 09:20:49;;;;;;;16.47;7.97;;;;;;;15.92;90.00;100988.78;5051008;28;20454;-73
2022/10/14 09:23:18;;;;;;;17.23;7.70;;;;;;;16.10;89.56;100991.09;5051122;28;20555;-72
2022/10/14 09:25:55;;;;;;;14.03;6.70;;;;;;;16.30;88.79;100989.56;5051745;28;20967;-73
2022/10/14 09:28:24;;;;;;;17.77;8.07;;;;;;;16.32;88.57;100984.56;5052688;28;20891;-73
2022/10/14 09:30:50;;;;;;;12.47;5.70;;;;;;;16.45;87.13;100990.13;5051584;28;20457;-72
2022/10/14 09:33:19;;;;;;;12.67;6.50;;;;;;;16.55;86.41;100989.75;5051453;28;20919;-72
2022/10/14 09:35:47;;;;;;;15.17;7.33;;;;;;;16.61;86.71;100989.22;5052446;28;20545;-73
2022/10/14 09:38:16;;;;;;;16.97;6.43;;;;;;;16.63;85.66;100983.41;5053434;28;20561;-72
2022/10/14 09:40:44;;;;;;;10.33;5.90;;;;;;;16.61;85.46;100980.22;5056283;28;20442;-73
2022/10/14 09:43:16;;;;;;;14.13;5.57;;;;;;;16.58;85.07;100984.41;5056291;28;20466;-72
2022/10/14 09:45:56;;;;;;;12.00;5.67;;;;;;;16.59;85.25;100980.53;5053173;28;20454;-72
2022/10/14 09:48:31;;;;;;;10.10;4.73;;;;;;;16.62;84.80;100976.34;5037350;28;20431;-72
2022/10/14 09:51:00;;;;;;;10.07;5.00;;;;;;;16.65;84.29;100981.16;5056086;28;20430;-73
2022/10/14 09:53:30;;;;;;;15.20;5.63;;;;;;;16.67;84.48;100970.69;5054613;28;20971;-72
2022/10/14 09:55:59;;;;;;;9.90;5.03;;;;;;;16.70;83.66;100967.28;5054924;28;20834;-72
2022/10/14 09:58:30;;;;;;;10.93;5.30;;;;;;;16.73;82.74;100966.63;5036081;28;20454;-72
2022/10/14 10:00:58;;;;;;;10.43;4.30;;;;;;;16.77;82.14;100973.03;5043439;28;20509;-73
2022/10/14 10:03:27;;;;;;;11.10;5.60;;;;;;;16.77;82.46;100961.31;5054843;28;20493;-73
2022/10/14 10:06:05;;;;;;;14.17;5.50;;;;;;;16.76;80.48;100955.03;5055139;28;20458;-73
2022/10/14 10:08:34;;;;;;;12.57;5.87;;;;;;;16.72;81.01;100954.09;5055529;28;20783;-73
2022/10/14 10:11:03;;;;;;;11.30;5.17;;;;;;;16.77;81.22;100953.09;5054769;28;20461;-73
2022/10/14 10:13:37;;;;;;;12.23;5.77;;;;;;;16.85;80.98;100960.44;5055608;28;20462;-74
2022/10/14 10:16:05;;;;;;;11.77;6.00;;;;;;;16.76;81.39;100962.44;5054714;28;20460;-73
2022/10/14 10:18:32;;;;;;;12.23;5.07;;;;;;;16.77;82.77;100959.38;5055824;28;20489;-73
2022/10/14 10:21:06;;;;;;;10.93;5.80;;;;;;;16.84;82.52;100956.91;5054155;28;20545;-74
2022/10/14 10:23:35;;;;;;;15.20;5.73;;;;;;;16.99;83.55;100951.94;5055154;28;20490;-74
2022/10/14 10:26:21;;;;;;;12.70;6.37;;;;;;;17.15;82.73;100950.22;5052941;28;20474;-73
2022/10/14 10:28:49;;;;;;;15.33;6.50;;;;;;;17.33;82.10;100959.06;5055490;28;20435;-74
2022/10/14 10:31:27;;;;;;;11.00;4.90;;;;;;;17.44;81.46;100959.41;5054434;28;20549;-74
2022/10/14 10:34:04;;;;;;;15.17;7.20;;;;;;;17.48;81.04;100952.13;5054933;28;21040;-74
2022/10/14 10:36:35;;;;;;;10.63;5.17;;;;;;;17.47;81.87;100956.00;5054582;28;20457;-73
2022/10/14 10:39:13;;;;;;;18.70;5.57;;;;;;;17.31;82.41;100959.41;5054500;28;20463;-73
2022/10/14 10:41:57;;;;;;;11.70;5.20;;;;;;;17.32;82.04;100958.25;5052966;28;20967;-73
2022/10/14 10:44:48;;;;;;;10.47;5.90;;;;;;;17.30;82.21;100954.25;5054560;28;20482;-74
2022/10/14 10:47:31;;;;;;;14.50;4.90;;;;;;;17.18;83.07;100949.53;5054081;28;20461;-72
2022/10/14 10:50:20;;;;;;;10.60;5.27;;;;;;;17.30;83.51;100951.50;5053767;28;20500;-73
2022/10/14 10:53:00;;;;;;;12.93;6.97;;;;;;;17.45;82.88;100952.81;5052562;28;21003;-73
2022/10/14 10:55:38;;;;;;;9.90;5.47;;;;;;;17.52;80.84;100950.31;5054939;28;20422;-73
2022/10/14 10:58:18;;;;;;;10.53;5.07;;;;;;;17.66;81.01;100942.56;5054368;28;20462;-73
2022/10/14 11:00:52;;;;;;;18.73;5.77;;;;;;;17.91;80.49;100951.66;5044271;28;20512;-73
2022/10/14 11:03:35;;;;;;;11.57;6.40;;;;;;;17.87;79.31;100956.22;5053440;28;20995;-73
2022/10/14 11:06:08;;;;;;;12.17;4.90;;;;;;;17.82;79.39;100948.22;5054630;28;20477;-73
2022/10/14 11:12:06;;;;;;;12.70;5.77;;;;;;;17.87;80.04;100942.53;5054426;28;20429;-73
2022/10/14 11:14:47;;;;;;;10.97;4.83;;;;;;;17.88;78.97;100939.47;5054155;28;20545;-74
2022/10/14 11:17:20;;;;;;;14.07;6.53;;;;;;;17.88;78.98;100933.97;5053643;28;20859;-72
2022/10/14 11:19:53;;;;;;;16.70;6.67;;;;;;;18.23;78.46;100932.69;5053538;28;21058;-73
2022/10/14 11:22:39;;;;;;;12.40;5.90;;;;;;;19.10;77.33;100924.72;5053099;28;20508;-73
2022/10/14 11:25:18;;;;;;;15.23;6.23;;;;;;;20.31;73.23;100928.94;5054311;28;20522;-74
2022/10/14 11:27:51;;;;;;;16.77;6.83;;;;;;;21.68;64.80;100936.81;5053423;28;20462;-74
2022/10/14 11:30:20;;;;;;;9.33;4.93;;;;;;;22.72;62.59;100927.38;5054470;28;20442;-73